sensor_id;sensor_type;location;lat;lon;timestamp;temperature;humidity
22321;DHT22;11328;53.928;18.522;2024-02-23T00:00:02;9.80;99.90
22321;DHT22;11328;53.928;18.522;2024-02-23T00:02:32;9.70;99.90
22321;DHT22;11328;53.928;18.522;2024-02-23T00:04:59;9.80;99.90
22321;DHT22;11328;53.928;18.522;2024-02-23T00:07:26;9.80;99.90
22321;DHT22;11328;53.928;18.522;2024-02-23T00:09:53;9.80;99.90
22321;DHT22;11328;53.928;18.522;2024-02-23T00:12:20;9.80;99.90
22321;DHT22;11328;53.928;18.522;2024-02-23T00:14:47;9.80;99.90
22321;DHT22;11328;53.928;18.522;2024-02-23T00:17:14;9.80;99.90
22321;DHT22;11328;53.928;18.522;2024-02-23T00:19:44;9.80;99.90
22321;DHT22;11328;53.928;18.522;2024-02-23T00:22:12;9.80;99.90
22321;DHT22;11328;53.928;18.522;2024-02-23T00:24:39;9.80;99.90
22321;DHT22;11328;53.928;18.522;2024-02-23T00:27:07;9.90;99.90
22321;DHT22;11328;53.928;18.522;2024-02-23T00:29:34;9.90;99.90
22321;DHT22;11328;53.928;18.522;2024-02-23T00:32:02;9.90;99.90
22321;DHT22;11328;53.928;18.522;2024-02-23T00:34:30;9.90;99.90
22321;DHT22;11328;53.928;18.522;2024-02-23T00:36:58;9.90;99.90
22321;DHT22;11328;53.928;18.522;2024-02-23T00:39:25;9.90;99.90
22321;DHT22;11328;53.928;18.522;2024-02-23T00:41:52;9.90;99.90
22321;DHT22;11328;53.928;18.522;2024-02-23T00:44:19;9.90;99.90
22321;DHT22;11328;53.928;18.522;2024-02-23T00:46:46;9.90;99.90
22321;DHT22;11328;53.928;18.522;2024-02-23T00:49:13;9.90;99.90
22321;DHT22;11328;53.928;18.522;2024-02-23T00:51:40;9.90;99.90
22321;DHT22;11328;53.928;18.522;2024-02-23T00:54:07;9.90;99.90
22321;DHT22;11328;53.928;18.522;2024-02-23T00:56:34;10.00;99.90
22321;DHT22;11328;53.928;18.522;2024-02-23T00:59:16;9.90;99.90
22321;DHT22;11328;53.928;18.522;2024-02-23T01:01:43;9.90;99.90
22321;DHT22;11328;53.928;18.522;2024-02-23T01:04:10;9.90;99.90
22321;DHT22;11328;53.928;18.522;2024-02-23T01:06:38;9.90;99.90
22321;DHT22;11328;53.928;18.522;2024-02-23T01:09:05;9.90;99.90
22321;DHT22;11328;53.928;18.522;2024-02-23T01:11:32;9.90;99.90
22321;DHT22;11328;53.928;18.522;2024-02-23T01:13:59;9.90;99.90
22321;DHT22;11328;53.928;18.522;2024-02-23T01:16:26;9.80;99.90
22321;DHT22;11328;53.928;18.522;2024-02-23T01:18:53;9.80;99.90
22321;DHT22;11328;53.928;18.522;2024-02-23T01:21:21;9.90;99.90
22321;DHT22;11328;53.928;18.522;2024-02-23T01:23:48;9.90;99.90
22321;DHT22;11328;53.928;18.522;2024-02-23T01:26:15;9.80;99.90
22321;DHT22;11328;53.928;18.522;2024-02-23T01:28:42;9.80;99.90
22321;DHT22;11328;53.928;18.522;2024-02-23T01:31:09;9.90;99.90
22321;DHT22;11328;53.928;18.522;2024-02-23T01:33:38;9.90;99.90
22321;DHT22;11328;53.928;18.522;2024-02-23T01:36:06;9.80;99.90
22321;DHT22;11328;53.928;18.522;2024-02-23T01:38:34;9.80;99.90
22321;DHT22;11328;53.928;18.522;2024-02-23T01:41:02;9.80;99.90
22321;DHT22;11328;53.928;18.522;2024-02-23T01:43:29;9.80;99.90
22321;DHT22;11328;53.928;18.522;2024-02-23T01:45:56;9.80;99.90
22321;DHT22;11328;53.928;18.522;2024-02-23T01:48:23;9.70;99.90
22321;DHT22;11328;53.928;18.522;2024-02-23T01:50:51;9.80;99.90
22321;DHT22;11328;53.928;18.522;2024-02-23T01:53:18;9.80;99.90
22321;DHT22;11328;53.928;18.522;2024-02-23T01:55:47;9.80;99.90
22321;DHT22;11328;53.928;18.522;2024-02-23T01:58:15;9.80;99.90
22321;DHT22;11328;53.928;18.522;2024-02-23T02:00:42;9.80;99.90
22321;DHT22;11328;53.928;18.522;2024-02-23T02:03:09;9.80;99.90
22321;DHT22;11328;53.928;18.522;2024-02-23T02:05:39;9.80;99.90
22321;DHT22;11328;53.928;18.522;2024-02-23T02:08:06;9.80;99.90
22321;DHT22;11328;53.928;18.522;2024-02-23T02:10:34;9.80;99.90
22321;DHT22;11328;53.928;18.522;2024-02-23T02:13:04;9.80;99.90
22321;DHT22;11328;53.928;18.522;2024-02-23T02:15:32;9.80;99.90
22321;DHT22;11328;53.928;18.522;2024-02-23T02:17:59;9.80;99.90
22321;DHT22;11328;53.928;18.522;2024-02-23T02:20:28;9.80;99.90
22321;DHT22;11328;53.928;18.522;2024-02-23T02:22:59;9.80;99.90
22321;DHT22;11328;53.928;18.522;2024-02-23T02:25:27;9.80;99.90
22321;DHT22;11328;53.928;18.522;2024-02-23T02:27:54;9.80;99.90
22321;DHT22;11328;53.928;18.522;2024-02-23T02:30:21;9.70;99.90
22321;DHT22;11328;53.928;18.522;2024-02-23T02:32:48;9.80;99.90
22321;DHT22;11328;53.928;18.522;2024-02-23T02:35:15;9.80;99.90
22321;DHT22;11328;53.928;18.522;2024-02-23T02:37:42;9.80;99.90
22321;DHT22;11328;53.928;18.522;2024-02-23T02:40:10;9.70;99.90
22321;DHT22;11328;53.928;18.522;2024-02-23T02:42:37;9.70;99.90
22321;DHT22;11328;53.928;18.522;2024-02-23T02:45:04;9.70;99.90
22321;DHT22;11328;53.928;18.522;2024-02-23T02:47:31;9.70;99.90
22321;DHT22;11328;53.928;18.522;2024-02-23T02:49:58;9.80;99.90
22321;DHT22;11328;53.928;18.522;2024-02-23T02:52:26;9.70;99.90
22321;DHT22;11328;53.928;18.522;2024-02-23T02:54:53;9.80;99.90
22321;DHT22;11328;53.928;18.522;2024-02-23T02:57:20;9.80;99.90
22321;DHT22;11328;53.928;18.522;2024-02-23T02:59:48;9.80;99.90
22321;DHT22;11328;53.928;18.522;2024-02-23T03:02:17;9.80;99.90
22321;DHT22;11328;53.928;18.522;2024-02-23T03:04:48;9.80;99.90
22321;DHT22;11328;53.928;18.522;2024-02-23T03:07:19;9.80;99.90
22321;DHT22;11328;53.928;18.522;2024-02-23T03:09:46;9.80;99.90
22321;DHT22;11328;53.928;18.522;2024-02-23T03:12:13;9.80;99.90
22321;DHT22;11328;53.928;18.522;2024-02-23T03:14:40;9.80;99.90
22321;DHT22;11328;53.928;18.522;2024-02-23T03:17:08;9.90;99.90
22321;DHT22;11328;53.928;18.522;2024-02-23T03:19:38;9.90;99.90
22321;DHT22;11328;53.928;18.522;2024-02-23T03:22:06;9.80;99.90
22321;DHT22;11328;53.928;18.522;2024-02-23T03:24:33;9.90;99.90
22321;DHT22;11328;53.928;18.522;2024-02-23T03:27:00;9.80;99.90
22321;DHT22;11328;53.928;18.522;2024-02-23T03:29:27;9.80;99.90
22321;DHT22;11328;53.928;18.522;2024-02-23T03:31:57;9.80;99.90
22321;DHT22;11328;53.928;18.522;2024-02-23T03:34:25;9.70;99.90
22321;DHT22;11328;53.928;18.522;2024-02-23T03:36:52;9.80;99.90
22321;DHT22;11328;53.928;18.522;2024-02-23T03:39:19;9.70;99.90
22321;DHT22;11328;53.928;18.522;2024-02-23T03:41:46;9.80;99.90
22321;DHT22;11328;53.928;18.522;2024-02-23T03:44:13;9.80;99.90
22321;DHT22;11328;53.928;18.522;2024-02-23T03:46:40;9.80;99.90
22321;DHT22;11328;53.928;18.522;2024-02-23T03:49:07;9.80;99.90
22321;DHT22;11328;53.928;18.522;2024-02-23T03:51:35;9.80;99.90
22321;DHT22;11328;53.928;18.522;2024-02-23T03:54:06;9.70;99.90
22321;DHT22;11328;53.928;18.522;2024-02-23T03:56:42;9.70;99.90
22321;DHT22;11328;53.928;18.522;2024-02-23T03:59:10;9.80;99.90
22321;DHT22;11328;53.928;18.522;2024-02-23T04:01:38;9.80;99.90
22321;DHT22;11328;53.928;18.522;2024-02-23T04:04:06;9.80;99.90
22321;DHT22;11328;53.928;18.522;2024-02-23T04:06:34;9.80;99.90
22321;DHT22;11328;53.928;18.522;2024-02-23T04:09:02;9.80;99.90
22321;DHT22;11328;53.928;18.522;2024-02-23T04:11:32;9.80;99.90
22321;DHT22;11328;53.928;18.522;2024-02-23T04:14:00;9.90;99.90
22321;DHT22;11328;53.928;18.522;2024-02-23T04:16:28;9.90;99.90
22321;DHT22;11328;53.928;18.522;2024-02-23T04:18:56;9.90;99.90
22321;DHT22;11328;53.928;18.522;2024-02-23T04:21:24;9.90;99.90
22321;DHT22;11328;53.928;18.522;2024-02-23T04:23:53;9.90;99.90
22321;DHT22;11328;53.928;18.522;2024-02-23T04:26:20;9.80;99.90
22321;DHT22;11328;53.928;18.522;2024-02-23T04:28:47;9.90;99.90
22321;DHT22;11328;53.928;18.522;2024-02-23T04:31:14;9.90;99.90
22321;DHT22;11328;53.928;18.522;2024-02-23T04:33:43;9.80;99.90
22321;DHT22;11328;53.928;18.522;2024-02-23T04:36:10;9.90;99.90
22321;DHT22;11328;53.928;18.522;2024-02-23T04:38:38;10.00;99.90
22321;DHT22;11328;53.928;18.522;2024-02-23T04:41:05;10.00;99.90
22321;DHT22;11328;53.928;18.522;2024-02-23T04:43:32;10.00;99.90
22321;DHT22;11328;53.928;18.522;2024-02-23T04:45:59;10.00;99.90
22321;DHT22;11328;53.928;18.522;2024-02-23T04:48:27;10.10;99.90
22321;DHT22;11328;53.928;18.522;2024-02-23T04:50:54;10.10;99.90
22321;DHT22;11328;53.928;18.522;2024-02-23T04:53:21;10.10;99.90
22321;DHT22;11328;53.928;18.522;2024-02-23T04:55:49;10.10;99.90
22321;DHT22;11328;53.928;18.522;2024-02-23T04:58:16;10.20;99.90
22321;DHT22;11328;53.928;18.522;2024-02-23T05:00:43;10.20;99.90
22321;DHT22;11328;53.928;18.522;2024-02-23T05:03:10;10.20;99.90
22321;DHT22;11328;53.928;18.522;2024-02-23T05:05:39;10.30;99.90
22321;DHT22;11328;53.928;18.522;2024-02-23T05:08:06;10.30;99.90
22321;DHT22;11328;53.928;18.522;2024-02-23T05:10:34;10.30;99.90
22321;DHT22;11328;53.928;18.522;2024-02-23T05:13:01;10.30;99.90
22321;DHT22;11328;53.928;18.522;2024-02-23T05:15:29;10.30;99.90
22321;DHT22;11328;53.928;18.522;2024-02-23T05:17:57;10.30;99.90
22321;DHT22;11328;53.928;18.522;2024-02-23T05:20:24;10.30;99.90
22321;DHT22;11328;53.928;18.522;2024-02-23T05:22:51;10.30;99.90
22321;DHT22;11328;53.928;18.522;2024-02-23T05:25:19;10.30;99.90
22321;DHT22;11328;53.928;18.522;2024-02-23T05:27:46;10.20;99.90
22321;DHT22;11328;53.928;18.522;2024-02-23T05:30:13;10.20;99.90
22321;DHT22;11328;53.928;18.522;2024-02-23T05:32:40;10.30;99.90
22321;DHT22;11328;53.928;18.522;2024-02-23T05:35:09;10.30;99.90
22321;DHT22;11328;53.928;18.522;2024-02-23T05:37:36;10.30;99.90
22321;DHT22;11328;53.928;18.522;2024-02-23T05:40:05;10.30;99.90
22321;DHT22;11328;53.928;18.522;2024-02-23T05:42:41;10.40;99.90
22321;DHT22;11328;53.928;18.522;2024-02-23T05:45:09;10.40;99.90
22321;DHT22;11328;53.928;18.522;2024-02-23T05:47:39;10.40;99.90
22321;DHT22;11328;53.928;18.522;2024-02-23T05:50:12;10.40;99.90
22321;DHT22;11328;53.928;18.522;2024-02-23T05:52:39;10.30;99.90
22321;DHT22;11328;53.928;18.522;2024-02-23T05:55:06;10.30;99.90
22321;DHT22;11328;53.928;18.522;2024-02-23T05:57:35;10.30;99.90
22321;DHT22;11328;53.928;18.522;2024-02-23T06:00:02;10.30;99.90
22321;DHT22;11328;53.928;18.522;2024-02-23T06:02:29;10.30;99.90
22321;DHT22;11328;53.928;18.522;2024-02-23T06:05:00;10.30;99.90
22321;DHT22;11328;53.928;18.522;2024-02-23T06:07:27;10.30;99.90
22321;DHT22;11328;53.928;18.522;2024-02-23T06:09:57;10.30;99.90
22321;DHT22;11328;53.928;18.522;2024-02-23T06:12:24;10.30;99.90
22321;DHT22;11328;53.928;18.522;2024-02-23T06:14:51;10.40;99.90
22321;DHT22;11328;53.928;18.522;2024-02-23T06:17:20;10.40;99.90
22321;DHT22;11328;53.928;18.522;2024-02-23T06:19:47;10.40;99.90
22321;DHT22;11328;53.928;18.522;2024-02-23T06:22:14;10.40;99.90
22321;DHT22;11328;53.928;18.522;2024-02-23T06:24:43;10.40;99.90
22321;DHT22;11328;53.928;18.522;2024-02-23T06:27:10;10.40;99.90
22321;DHT22;11328;53.928;18.522;2024-02-23T06:29:37;10.40;99.90
22321;DHT22;11328;53.928;18.522;2024-02-23T06:32:05;10.40;99.90
22321;DHT22;11328;53.928;18.522;2024-02-23T06:34:32;10.40;99.90
22321;DHT22;11328;53.928;18.522;2024-02-23T06:37:00;10.40;99.90
22321;DHT22;11328;53.928;18.522;2024-02-23T06:39:27;10.50;99.90
22321;DHT22;11328;53.928;18.522;2024-02-23T06:41:54;10.50;99.90
22321;DHT22;11328;53.928;18.522;2024-02-23T06:44:21;10.50;99.90
22321;DHT22;11328;53.928;18.522;2024-02-23T06:46:48;10.40;99.90
22321;DHT22;11328;53.928;18.522;2024-02-23T06:49:15;10.40;99.90
22321;DHT22;11328;53.928;18.522;2024-02-23T06:51:42;10.50;99.90
22321;DHT22;11328;53.928;18.522;2024-02-23T06:54:11;10.50;99.90
22321;DHT22;11328;53.928;18.522;2024-02-23T06:56:39;10.50;99.90
22321;DHT22;11328;53.928;18.522;2024-02-23T06:59:12;10.40;99.90
22321;DHT22;11328;53.928;18.522;2024-02-23T07:01:50;10.50;99.90
22321;DHT22;11328;53.928;18.522;2024-02-23T07:04:17;10.50;99.90
22321;DHT22;11328;53.928;18.522;2024-02-23T07:06:45;10.50;99.90
22321;DHT22;11328;53.928;18.522;2024-02-23T07:09:12;10.50;99.90
22321;DHT22;11328;53.928;18.522;2024-02-23T07:11:40;10.50;99.90
22321;DHT22;11328;53.928;18.522;2024-02-23T07:14:10;10.60;99.90
22321;DHT22;11328;53.928;18.522;2024-02-23T07:16:39;10.50;99.90
22321;DHT22;11328;53.928;18.522;2024-02-23T07:19:07;10.60;99.90
22321;DHT22;11328;53.928;18.522;2024-02-23T07:21:37;10.60;99.90
22321;DHT22;11328;53.928;18.522;2024-02-23T07:24:09;10.60;99.90
22321;DHT22;11328;53.928;18.522;2024-02-23T07:26:36;10.70;99.90
22321;DHT22;11328;53.928;18.522;2024-02-23T07:29:05;10.70;99.90
22321;DHT22;11328;53.928;18.522;2024-02-23T07:31:34;10.60;99.90
22321;DHT22;11328;53.928;18.522;2024-02-23T07:34:01;10.60;99.90
22321;DHT22;11328;53.928;18.522;2024-02-23T07:36:28;10.70;99.90
22321;DHT22;11328;53.928;18.522;2024-02-23T07:38:55;10.70;99.90
22321;DHT22;11328;53.928;18.522;2024-02-23T07:41:22;10.80;99.90
22321;DHT22;11328;53.928;18.522;2024-02-23T07:43:49;10.80;99.90
22321;DHT22;11328;53.928;18.522;2024-02-23T07:46:16;10.80;99.90
22321;DHT22;11328;53.928;18.522;2024-02-23T07:48:43;10.70;99.90
22321;DHT22;11328;53.928;18.522;2024-02-23T07:51:11;10.70;99.90
22321;DHT22;11328;53.928;18.522;2024-02-23T07:53:38;10.80;99.90
22321;DHT22;11328;53.928;18.522;2024-02-23T07:56:07;10.80;99.90
22321;DHT22;11328;53.928;18.522;2024-02-23T07:58:35;10.70;99.90
22321;DHT22;11328;53.928;18.522;2024-02-23T08:01:02;10.70;99.90
22321;DHT22;11328;53.928;18.522;2024-02-23T08:03:29;10.60;99.90
22321;DHT22;11328;53.928;18.522;2024-02-23T08:05:56;10.40;99.90
22321;DHT22;11328;53.928;18.522;2024-02-23T08:08:27;10.50;99.90
22321;DHT22;11328;53.928;18.522;2024-02-23T08:10:54;10.40;99.90
22321;DHT22;11328;53.928;18.522;2024-02-23T08:13:22;10.30;99.90
22321;DHT22;11328;53.928;18.522;2024-02-23T08:15:49;10.20;99.90
22321;DHT22;11328;53.928;18.522;2024-02-23T08:18:16;10.20;99.90
22321;DHT22;11328;53.928;18.522;2024-02-23T08:20:43;10.20;99.90
22321;DHT22;11328;53.928;18.522;2024-02-23T08:23:10;10.30;99.90
22321;DHT22;11328;53.928;18.522;2024-02-23T08:25:37;10.10;99.90
22321;DHT22;11328;53.928;18.522;2024-02-23T08:28:04;10.10;99.90
22321;DHT22;11328;53.928;18.522;2024-02-23T08:30:33;10.10;99.90
22321;DHT22;11328;53.928;18.522;2024-02-23T08:33:00;10.20;99.90
22321;DHT22;11328;53.928;18.522;2024-02-23T08:35:27;10.20;99.90
22321;DHT22;11328;53.928;18.522;2024-02-23T08:37:54;10.10;99.90
22321;DHT22;11328;53.928;18.522;2024-02-23T08:40:21;10.10;99.90
22321;DHT22;11328;53.928;18.522;2024-02-23T08:42:48;10.10;99.90
22321;DHT22;11328;53.928;18.522;2024-02-23T08:45:16;10.10;99.90
22321;DHT22;11328;53.928;18.522;2024-02-23T08:47:44;10.10;99.90
22321;DHT22;11328;53.928;18.522;2024-02-23T08:50:11;10.10;99.90
22321;DHT22;11328;53.928;18.522;2024-02-23T08:52:38;10.20;99.90
22321;DHT22;11328;53.928;18.522;2024-02-23T08:55:06;10.20;99.90
22321;DHT22;11328;53.928;18.522;2024-02-23T08:57:33;10.20;99.90
22321;DHT22;11328;53.928;18.522;2024-02-23T09:00:01;10.20;99.90
22321;DHT22;11328;53.928;18.522;2024-02-23T09:02:28;10.20;99.90
22321;DHT22;11328;53.928;18.522;2024-02-23T09:04:55;10.10;99.90
22321;DHT22;11328;53.928;18.522;2024-02-23T09:07:22;10.10;99.90
22321;DHT22;11328;53.928;18.522;2024-02-23T09:09:50;10.10;99.90
22321;DHT22;11328;53.928;18.522;2024-02-23T09:12:18;10.20;99.90
22321;DHT22;11328;53.928;18.522;2024-02-23T09:14:45;10.30;99.90
22321;DHT22;11328;53.928;18.522;2024-02-23T09:17:12;10.30;99.90
22321;DHT22;11328;53.928;18.522;2024-02-23T09:19:40;10.40;99.90
22321;DHT22;11328;53.928;18.522;2024-02-23T09:22:07;10.40;99.90
22321;DHT22;11328;53.928;18.522;2024-02-23T09:24:34;10.50;99.90
22321;DHT22;11328;53.928;18.522;2024-02-23T09:27:02;10.50;99.90
22321;DHT22;11328;53.928;18.522;2024-02-23T09:29:29;10.60;99.90
22321;DHT22;11328;53.928;18.522;2024-02-23T09:31:57;10.60;99.90
22321;DHT22;11328;53.928;18.522;2024-02-23T09:34:24;10.60;99.90
22321;DHT22;11328;53.928;18.522;2024-02-23T09:36:52;10.70;99.90
22321;DHT22;11328;53.928;18.522;2024-02-23T09:39:19;10.70;99.90
22321;DHT22;11328;53.928;18.522;2024-02-23T09:41:50;10.70;99.90
22321;DHT22;11328;53.928;18.522;2024-02-23T09:44:18;10.70;99.90
22321;DHT22;11328;53.928;18.522;2024-02-23T09:46:48;10.70;99.90
22321;DHT22;11328;53.928;18.522;2024-02-23T09:49:16;10.80;99.90
22321;DHT22;11328;53.928;18.522;2024-02-23T09:51:43;10.90;99.90
22321;DHT22;11328;53.928;18.522;2024-02-23T09:54:11;10.90;99.90
22321;DHT22;11328;53.928;18.522;2024-02-23T09:56:38;10.80;99.90
22321;DHT22;11328;53.928;18.522;2024-02-23T09:59:06;10.80;99.90
22321;DHT22;11328;53.928;18.522;2024-02-23T10:01:33;10.90;99.90
22321;DHT22;11328;53.928;18.522;2024-02-23T10:04:01;10.80;99.90
22321;DHT22;11328;53.928;18.522;2024-02-23T10:06:31;11.00;99.90
22321;DHT22;11328;53.928;18.522;2024-02-23T10:08:59;11.00;99.90
22321;DHT22;11328;53.928;18.522;2024-02-23T10:11:26;11.00;99.90
22321;DHT22;11328;53.928;18.522;2024-02-23T10:13:55;11.10;99.90
22321;DHT22;11328;53.928;18.522;2024-02-23T10:16:22;11.10;99.90
22321;DHT22;11328;53.928;18.522;2024-02-23T10:18:49;11.10;99.90
22321;DHT22;11328;53.928;18.522;2024-02-23T10:21:17;11.10;99.90
22321;DHT22;11328;53.928;18.522;2024-02-23T10:23:45;11.00;99.90
22321;DHT22;11328;53.928;18.522;2024-02-23T10:26:13;11.10;99.90
22321;DHT22;11328;53.928;18.522;2024-02-23T10:28:45;11.10;99.90
22321;DHT22;11328;53.928;18.522;2024-02-23T10:31:18;11.00;99.90
22321;DHT22;11328;53.928;18.522;2024-02-23T10:33:45;11.00;99.90
22321;DHT22;11328;53.928;18.522;2024-02-23T10:36:15;10.90;99.90
22321;DHT22;11328;53.928;18.522;2024-02-23T10:38:50;10.80;99.90
22321;DHT22;11328;53.928;18.522;2024-02-23T10:41:22;10.80;99.90
22321;DHT22;11328;53.928;18.522;2024-02-23T10:43:49;10.90;99.90
22321;DHT22;11328;53.928;18.522;2024-02-23T10:46:18;11.00;99.90
22321;DHT22;11328;53.928;18.522;2024-02-23T10:48:48;11.00;99.90
22321;DHT22;11328;53.928;18.522;2024-02-23T10:51:17;11.10;99.90
22321;DHT22;11328;53.928;18.522;2024-02-23T10:53:48;11.10;99.90
22321;DHT22;11328;53.928;18.522;2024-02-23T10:56:16;11.10;99.90
22321;DHT22;11328;53.928;18.522;2024-02-23T10:58:43;11.10;99.90
22321;DHT22;11328;53.928;18.522;2024-02-23T11:01:10;11.00;99.90
22321;DHT22;11328;53.928;18.522;2024-02-23T11:03:43;11.10;99.90
22321;DHT22;11328;53.928;18.522;2024-02-23T11:06:15;11.00;99.90
22321;DHT22;11328;53.928;18.522;2024-02-23T11:08:48;11.00;99.90
22321;DHT22;11328;53.928;18.522;2024-02-23T11:11:16;11.00;99.90
22321;DHT22;11328;53.928;18.522;2024-02-23T11:13:45;11.10;99.90
22321;DHT22;11328;53.928;18.522;2024-02-23T11:16:22;11.10;99.90
22321;DHT22;11328;53.928;18.522;2024-02-23T11:19:04;11.00;99.90
22321;DHT22;11328;53.928;18.522;2024-02-23T11:21:36;11.00;99.90
22321;DHT22;11328;53.928;18.522;2024-02-23T11:24:06;11.00;99.90
22321;DHT22;11328;53.928;18.522;2024-02-23T11:26:37;11.00;99.90
22321;DHT22;11328;53.928;18.522;2024-02-23T11:29:12;11.00;99.90
22321;DHT22;11328;53.928;18.522;2024-02-23T11:31:46;10.90;99.90
22321;DHT22;11328;53.928;18.522;2024-02-23T11:34:21;10.90;99.90
22321;DHT22;11328;53.928;18.522;2024-02-23T11:36:50;10.90;99.90
22321;DHT22;11328;53.928;18.522;2024-02-23T11:39:20;10.80;99.90
22321;DHT22;11328;53.928;18.522;2024-02-23T11:41:51;10.90;99.90
22321;DHT22;11328;53.928;18.522;2024-02-23T11:44:18;11.00;99.90
22321;DHT22;11328;53.928;18.522;2024-02-23T11:46:46;11.00;99.90
22321;DHT22;11328;53.928;18.522;2024-02-23T11:49:14;11.10;99.90
22321;DHT22;11328;53.928;18.522;2024-02-23T11:51:44;11.20;99.90
22321;DHT22;11328;53.928;18.522;2024-02-23T11:54:11;11.20;99.90
22321;DHT22;11328;53.928;18.522;2024-02-23T11:56:40;11.30;99.90
22321;DHT22;11328;53.928;18.522;2024-02-23T11:59:10;11.30;99.90
22321;DHT22;11328;53.928;18.522;2024-02-23T12:01:37;11.40;99.90
22321;DHT22;11328;53.928;18.522;2024-02-23T12:04:04;11.40;99.90
22321;DHT22;11328;53.928;18.522;2024-02-23T12:06:32;11.50;99.90
22321;DHT22;11328;53.928;18.522;2024-02-23T12:09:01;11.60;99.90
22321;DHT22;11328;53.928;18.522;2024-02-23T12:11:30;11.60;99.90
22321;DHT22;11328;53.928;18.522;2024-02-23T12:13:58;11.60;99.90
22321;DHT22;11328;53.928;18.522;2024-02-23T12:16:26;11.50;99.90
22321;DHT22;11328;53.928;18.522;2024-02-23T12:18:55;11.60;99.90
22321;DHT22;11328;53.928;18.522;2024-02-23T12:21:23;11.50;99.90
22321;DHT22;11328;53.928;18.522;2024-02-23T12:23:52;11.60;99.90
22321;DHT22;11328;53.928;18.522;2024-02-23T12:26:20;11.70;99.90
22321;DHT22;11328;53.928;18.522;2024-02-23T12:28:47;11.50;99.90
22321;DHT22;11328;53.928;18.522;2024-02-23T12:31:14;11.60;99.90
22321;DHT22;11328;53.928;18.522;2024-02-23T12:33:41;11.70;99.90
22321;DHT22;11328;53.928;18.522;2024-02-23T12:36:15;11.80;99.90
22321;DHT22;11328;53.928;18.522;2024-02-23T12:38:42;11.70;99.90
22321;DHT22;11328;53.928;18.522;2024-02-23T12:41:09;11.60;99.90
22321;DHT22;11328;53.928;18.522;2024-02-23T12:43:38;11.80;99.90
22321;DHT22;11328;53.928;18.522;2024-02-23T12:46:08;11.70;99.90
22321;DHT22;11328;53.928;18.522;2024-02-23T12:48:35;11.90;99.90
22321;DHT22;11328;53.928;18.522;2024-02-23T12:51:03;12.00;99.90
22321;DHT22;11328;53.928;18.522;2024-02-23T12:53:39;12.00;99.90
22321;DHT22;11328;53.928;18.522;2024-02-23T12:56:12;11.90;99.90
22321;DHT22;11328;53.928;18.522;2024-02-23T12:58:41;11.80;99.90
22321;DHT22;11328;53.928;18.522;2024-02-23T13:01:10;11.80;99.90
22321;DHT22;11328;53.928;18.522;2024-02-23T13:03:38;12.00;99.90
22321;DHT22;11328;53.928;18.522;2024-02-23T13:06:09;12.10;99.90
22321;DHT22;11328;53.928;18.522;2024-02-23T13:08:36;12.00;99.90
22321;DHT22;11328;53.928;18.522;2024-02-23T13:11:05;12.00;99.90
22321;DHT22;11328;53.928;18.522;2024-02-23T13:13:34;12.00;99.90
22321;DHT22;11328;53.928;18.522;2024-02-23T13:16:02;11.90;99.90
22321;DHT22;11328;53.928;18.522;2024-02-23T13:18:29;11.90;99.90
22321;DHT22;11328;53.928;18.522;2024-02-23T13:20:56;11.90;99.90
22321;DHT22;11328;53.928;18.522;2024-02-23T13:23:23;11.80;99.90
22321;DHT22;11328;53.928;18.522;2024-02-23T13:25:51;11.70;99.90
22321;DHT22;11328;53.928;18.522;2024-02-23T13:28:18;11.50;99.90
22321;DHT22;11328;53.928;18.522;2024-02-23T13:30:45;11.50;99.90
22321;DHT22;11328;53.928;18.522;2024-02-23T13:33:12;11.50;99.90
22321;DHT22;11328;53.928;18.522;2024-02-23T13:35:39;11.50;99.90
22321;DHT22;11328;53.928;18.522;2024-02-23T13:38:07;11.60;99.90
22321;DHT22;11328;53.928;18.522;2024-02-23T13:40:35;11.50;99.90
22321;DHT22;11328;53.928;18.522;2024-02-23T13:43:02;11.50;99.90
22321;DHT22;11328;53.928;18.522;2024-02-23T13:45:30;11.60;99.90
22321;DHT22;11328;53.928;18.522;2024-02-23T13:48:02;11.70;99.90
22321;DHT22;11328;53.928;18.522;2024-02-23T13:50:32;11.60;99.90
22321;DHT22;11328;53.928;18.522;2024-02-23T13:53:06;11.60;99.90
22321;DHT22;11328;53.928;18.522;2024-02-23T13:55:33;11.70;99.90
22321;DHT22;11328;53.928;18.522;2024-02-23T13:58:01;11.70;99.90
22321;DHT22;11328;53.928;18.522;2024-02-23T14:00:27;11.70;99.90
22321;DHT22;11328;53.928;18.522;2024-02-23T14:02:54;11.70;99.90
22321;DHT22;11328;53.928;18.522;2024-02-23T14:05:22;11.60;99.90
22321;DHT22;11328;53.928;18.522;2024-02-23T14:07:52;11.60;99.90
22321;DHT22;11328;53.928;18.522;2024-02-23T14:10:22;11.60;99.90
22321;DHT22;11328;53.928;18.522;2024-02-23T14:12:49;11.60;99.90
22321;DHT22;11328;53.928;18.522;2024-02-23T14:15:17;11.40;99.90
22321;DHT22;11328;53.928;18.522;2024-02-23T14:17:44;11.40;99.90
22321;DHT22;11328;53.928;18.522;2024-02-23T14:20:11;11.50;99.90
22321;DHT22;11328;53.928;18.522;2024-02-23T14:22:39;11.60;99.90
22321;DHT22;11328;53.928;18.522;2024-02-23T14:25:06;11.60;99.90
22321;DHT22;11328;53.928;18.522;2024-02-23T14:27:34;11.60;99.90
22321;DHT22;11328;53.928;18.522;2024-02-23T14:30:01;11.60;99.90
22321;DHT22;11328;53.928;18.522;2024-02-23T14:32:29;11.50;99.90
22321;DHT22;11328;53.928;18.522;2024-02-23T14:34:56;11.50;99.90
22321;DHT22;11328;53.928;18.522;2024-02-23T14:37:24;11.50;99.90
22321;DHT22;11328;53.928;18.522;2024-02-23T14:39:52;11.50;99.90
22321;DHT22;11328;53.928;18.522;2024-02-23T14:42:19;11.40;99.90
22321;DHT22;11328;53.928;18.522;2024-02-23T14:44:46;11.40;99.90
22321;DHT22;11328;53.928;18.522;2024-02-23T14:47:14;11.50;99.90
22321;DHT22;11328;53.928;18.522;2024-02-23T14:49:41;11.50;99.90
22321;DHT22;11328;53.928;18.522;2024-02-23T14:52:08;11.50;99.90
22321;DHT22;11328;53.928;18.522;2024-02-23T14:54:35;11.50;99.90
22321;DHT22;11328;53.928;18.522;2024-02-23T14:57:03;11.50;99.90
22321;DHT22;11328;53.928;18.522;2024-02-23T14:59:30;11.60;99.90
22321;DHT22;11328;53.928;18.522;2024-02-23T15:01:58;11.60;99.90
22321;DHT22;11328;53.928;18.522;2024-02-23T15:04:25;11.60;99.90
22321;DHT22;11328;53.928;18.522;2024-02-23T15:06:52;11.70;99.90
22321;DHT22;11328;53.928;18.522;2024-02-23T15:09:19;11.60;99.90
22321;DHT22;11328;53.928;18.522;2024-02-23T15:11:46;11.70;99.90
22321;DHT22;11328;53.928;18.522;2024-02-23T15:14:13;11.70;99.90
22321;DHT22;11328;53.928;18.522;2024-02-23T15:16:43;11.70;99.90
22321;DHT22;11328;53.928;18.522;2024-02-23T15:19:10;11.70;99.90
22321;DHT22;11328;53.928;18.522;2024-02-23T15:21:42;11.70;99.90
22321;DHT22;11328;53.928;18.522;2024-02-23T15:24:10;11.70;99.90